Garrison, Maryland
Current Conditions -  °F | °C
As of 6:54 AM on Friday 31 Oct 2014 (Local Time) from KBWI Reporting Station
Broken Clouds Broken Clouds  
Wind Chill:   Ceiling: 5500
Heat Index:   Visibility: 10mi
Dew Point:   Wind: 6mph
Humidity: 71%   Direction: 50°NE
Pressure: 29.99"   Gusts: NA
Location:  39.41°N, 76.76°W
Report Text: KBWI 311054Z 05005KT 10SM BKN055 09/04 A2999 RMK AO2 SLP157 T00890039
Loading
Personal Weather Stations






























Interactive Weather Map
Tropical Storm Tracking
New forecast layout! Learn more

10-Day Weather Forecast

Advertisements
Track Severe Weather on mobile